sensor_id;sensor_type;location;lat;lon;timestamp;pressure;altitude;pressure_sealevel;temperature
45850;BMP180;10739;52.198;20.908;2023-02-20T00:00:33;100403.00;;;4.20
45850;BMP180;10739;52.198;20.908;2023-02-20T00:03:00;100397.00;;;4.60
45850;BMP180;10739;52.198;20.908;2023-02-20T00:05:26;100399.00;;;4.50
45850;BMP180;10739;52.198;20.908;2023-02-20T00:07:53;100395.00;;;4.60
45850;BMP180;10739;52.198;20.908;2023-02-20T00:10:23;100394.00;;;4.70
45850;BMP180;10739;52.198;20.908;2023-02-20T00:12:51;100389.00;;;4.10
45850;BMP180;10739;52.198;20.908;2023-02-20T00:15:19;100374.00;;;4.80
45850;BMP180;10739;52.198;20.908;2023-02-20T00:17:46;100381.00;;;4.50
45850;BMP180;10739;52.198;20.908;2023-02-20T00:20:23;100377.00;;;4.60
45850;BMP180;10739;52.198;20.908;2023-02-20T00:22:51;100375.00;;;4.20
45850;BMP180;10739;52.198;20.908;2023-02-20T00:25:20;100371.00;;;4.80
45850;BMP180;10739;52.198;20.908;2023-02-20T00:27:47;100370.00;;;4.80
45850;BMP180;10739;52.198;20.908;2023-02-20T00:30:20;100363.00;;;4.20
45850;BMP180;10739;52.198;20.908;2023-02-20T00:32:49;100371.00;;;4.70
45850;BMP180;10739;52.198;20.908;2023-02-20T00:35:17;100376.00;;;4.60
45850;BMP180;10739;52.198;20.908;2023-02-20T00:37:46;100377.00;;;4.50
45850;BMP180;10739;52.198;20.908;2023-02-20T00:40:14;100385.00;;;4.30
45850;BMP180;10739;52.198;20.908;2023-02-20T00:42:41;100382.00;;;4.10
45850;BMP180;10739;52.198;20.908;2023-02-20T00:45:08;100392.00;;;4.00
45850;BMP180;10739;52.198;20.908;2023-02-20T00:47:35;100376.00;;;4.30
45850;BMP180;10739;52.198;20.908;2023-02-20T00:50:02;100380.00;;;4.60
45850;BMP180;10739;52.198;20.908;2023-02-20T00:52:28;100377.00;;;4.10
45850;BMP180;10739;52.198;20.908;2023-02-20T00:54:55;100384.00;;;4.10
45850;BMP180;10739;52.198;20.908;2023-02-20T00:57:21;100384.00;;;4.70
45850;BMP180;10739;52.198;20.908;2023-02-20T00:59:49;100375.00;;;4.90
45850;BMP180;10739;52.198;20.908;2023-02-20T01:02:16;100372.00;;;4.50
45850;BMP180;10739;52.198;20.908;2023-02-20T01:04:43;100364.00;;;4.20
45850;BMP180;10739;52.198;20.908;2023-02-20T01:07:09;100361.00;;;4.40
45850;BMP180;10739;52.198;20.908;2023-02-20T01:09:36;100373.00;;;4.50
45850;BMP180;10739;52.198;20.908;2023-02-20T01:12:03;100362.00;;;4.40
45850;BMP180;10739;52.198;20.908;2023-02-20T01:14:29;100373.00;;;4.30
45850;BMP180;10739;52.198;20.908;2023-02-20T01:16:57;100368.00;;;4.20
45850;BMP180;10739;52.198;20.908;2023-02-20T01:19:24;100377.00;;;4.70
45850;BMP180;10739;52.198;20.908;2023-02-20T01:21:51;100374.00;;;3.80
45850;BMP180;10739;52.198;20.908;2023-02-20T01:24:18;100365.00;;;4.10
45850;BMP180;10739;52.198;20.908;2023-02-20T01:26:47;100366.00;;;4.20
45850;BMP180;10739;52.198;20.908;2023-02-20T01:29:17;100355.00;;;4.30
45850;BMP180;10739;52.198;20.908;2023-02-20T01:31:51;100356.00;;;4.70
45850;BMP180;10739;52.198;20.908;2023-02-20T01:34:19;100350.00;;;4.60
45850;BMP180;10739;52.198;20.908;2023-02-20T01:36:48;100348.00;;;4.50
45850;BMP180;10739;52.198;20.908;2023-02-20T01:39:26;100349.00;;;4.70
45850;BMP180;10739;52.198;20.908;2023-02-20T01:42:01;100351.00;;;4.80
45850;BMP180;10739;52.198;20.908;2023-02-20T01:44:35;100359.00;;;4.00
45850;BMP180;10739;52.198;20.908;2023-02-20T01:47:08;100368.00;;;4.60
45850;BMP180;10739;52.198;20.908;2023-02-20T01:49:50;100363.00;;;4.60
45850;BMP180;10739;52.198;20.908;2023-02-20T01:52:30;100363.00;;;4.30
45850;BMP180;10739;52.198;20.908;2023-02-20T01:55:16;100345.00;;;4.40
45850;BMP180;10739;52.198;20.908;2023-02-20T01:58:02;100343.00;;;4.30
45850;BMP180;10739;52.198;20.908;2023-02-20T02:00:31;100340.00;;;4.00
45850;BMP180;10739;52.198;20.908;2023-02-20T02:03:16;100341.00;;;4.40
45850;BMP180;10739;52.198;20.908;2023-02-20T02:05:48;100334.00;;;4.80
45850;BMP180;10739;52.198;20.908;2023-02-20T02:08:19;100343.00;;;4.30
45850;BMP180;10739;52.198;20.908;2023-02-20T02:11:02;100348.00;;;4.30
45850;BMP180;10739;52.198;20.908;2023-02-20T02:13:31;100339.00;;;4.50
45850;BMP180;10739;52.198;20.908;2023-02-20T02:28:16;100341.00;;;4.40
45850;BMP180;10739;52.198;20.908;2023-02-20T02:37:00;100342.00;;;4.20
45850;BMP180;10739;52.198;20.908;2023-02-20T02:39:47;100341.00;;;4.20
45850;BMP180;10739;52.198;20.908;2023-02-20T02:42:54;100341.00;;;4.30
45850;BMP180;10739;52.198;20.908;2023-02-20T02:48:36;100330.00;;;4.20
45850;BMP180;10739;52.198;20.908;2023-02-20T02:51:24;100333.00;;;4.60
45850;BMP180;10739;52.198;20.908;2023-02-20T02:56:42;100335.00;;;4.50
45850;BMP180;10739;52.198;20.908;2023-02-20T02:59:21;100334.00;;;4.70
45850;BMP180;10739;52.198;20.908;2023-02-20T03:01:57;100349.00;;;4.70
45850;BMP180;10739;52.198;20.908;2023-02-20T03:04:27;100340.00;;;4.30
45850;BMP180;10739;52.198;20.908;2023-02-20T03:07:03;100331.00;;;4.20
45850;BMP180;10739;52.198;20.908;2023-02-20T03:09:37;100323.00;;;4.10
45850;BMP180;10739;52.198;20.908;2023-02-20T03:12:08;100335.00;;;4.40
45850;BMP180;10739;52.198;20.908;2023-02-20T03:14:49;100325.00;;;4.20
45850;BMP180;10739;52.198;20.908;2023-02-20T03:18:04;100336.00;;;3.90
45850;BMP180;10739;52.198;20.908;2023-02-20T03:20:31;100337.00;;;4.20
45850;BMP180;10739;52.198;20.908;2023-02-20T03:22:59;100338.00;;;4.30
45850;BMP180;10739;52.198;20.908;2023-02-20T03:26:04;100322.00;;;4.10
45850;BMP180;10739;52.198;20.908;2023-02-20T03:28:42;100318.00;;;4.50
45850;BMP180;10739;52.198;20.908;2023-02-20T03:31:23;100321.00;;;4.50
45850;BMP180;10739;52.198;20.908;2023-02-20T03:34:16;100319.00;;;4.70
45850;BMP180;10739;52.198;20.908;2023-02-20T03:37:14;100325.00;;;4.40
45850;BMP180;10739;52.198;20.908;2023-02-20T03:40:06;100324.00;;;4.70
45850;BMP180;10739;52.198;20.908;2023-02-20T03:42:59;100316.00;;;4.90
45850;BMP180;10739;52.198;20.908;2023-02-20T03:45:46;100312.00;;;4.90
45850;BMP180;10739;52.198;20.908;2023-02-20T03:48:31;100322.00;;;4.20
45850;BMP180;10739;52.198;20.908;2023-02-20T03:51:00;100318.00;;;5.00
45850;BMP180;10739;52.198;20.908;2023-02-20T03:53:45;100319.00;;;4.70
45850;BMP180;10739;52.198;20.908;2023-02-20T03:56:25;100313.00;;;4.90
45850;BMP180;10739;52.198;20.908;2023-02-20T04:01:35;100303.00;;;4.50
45850;BMP180;10739;52.198;20.908;2023-02-20T04:04:03;100309.00;;;4.20
45850;BMP180;10739;52.198;20.908;2023-02-20T04:06:34;100309.00;;;4.40
45850;BMP180;10739;52.198;20.908;2023-02-20T04:09:07;100312.00;;;4.70
45850;BMP180;10739;52.198;20.908;2023-02-20T04:11:48;100309.00;;;4.50
45850;BMP180;10739;52.198;20.908;2023-02-20T04:14:20;100311.00;;;4.60
45850;BMP180;10739;52.198;20.908;2023-02-20T04:16:55;100308.00;;;3.90
45850;BMP180;10739;52.198;20.908;2023-02-20T04:19:22;100297.00;;;4.20
45850;BMP180;10739;52.198;20.908;2023-02-20T04:21:54;100297.00;;;4.40
45850;BMP180;10739;52.198;20.908;2023-02-20T04:28:03;100292.00;;;4.20
45850;BMP180;10739;52.198;20.908;2023-02-20T04:30:30;100281.00;;;4.10
45850;BMP180;10739;52.198;20.908;2023-02-20T04:32:57;100290.00;;;4.00
45850;BMP180;10739;52.198;20.908;2023-02-20T04:35:24;100285.00;;;4.20
45850;BMP180;10739;52.198;20.908;2023-02-20T04:37:50;100283.00;;;4.50
45850;BMP180;10739;52.198;20.908;2023-02-20T04:40:21;100288.00;;;4.20
45850;BMP180;10739;52.198;20.908;2023-02-20T04:42:47;100280.00;;;4.30
45850;BMP180;10739;52.198;20.908;2023-02-20T04:45:14;100271.00;;;4.20
45850;BMP180;10739;52.198;20.908;2023-02-20T04:47:44;100273.00;;;4.50
45850;BMP180;10739;52.198;20.908;2023-02-20T04:50:34;100256.00;;;5.10
45850;BMP180;10739;52.198;20.908;2023-02-20T04:53:01;100267.00;;;4.70
45850;BMP180;10739;52.198;20.908;2023-02-20T04:55:27;100255.00;;;4.80
45850;BMP180;10739;52.198;20.908;2023-02-20T04:57:54;100251.00;;;4.60
45850;BMP180;10739;52.198;20.908;2023-02-20T05:00:25;100247.00;;;5.00
45850;BMP180;10739;52.198;20.908;2023-02-20T05:02:52;100258.00;;;5.00
45850;BMP180;10739;52.198;20.908;2023-02-20T05:05:26;100250.00;;;4.90
45850;BMP180;10739;52.198;20.908;2023-02-20T05:07:57;100249.00;;;4.90
45850;BMP180;10739;52.198;20.908;2023-02-20T05:10:25;100255.00;;;5.30
45850;BMP180;10739;52.198;20.908;2023-02-20T05:12:51;100252.00;;;5.20
45850;BMP180;10739;52.198;20.908;2023-02-20T05:15:19;100242.00;;;5.10
45850;BMP180;10739;52.198;20.908;2023-02-20T05:17:46;100239.00;;;5.00
45850;BMP180;10739;52.198;20.908;2023-02-20T05:20:13;100233.00;;;4.80
45850;BMP180;10739;52.198;20.908;2023-02-20T05:22:40;100240.00;;;4.70
45850;BMP180;10739;52.198;20.908;2023-02-20T05:25:08;100219.00;;;4.80
45850;BMP180;10739;52.198;20.908;2023-02-20T05:27:34;100227.00;;;4.50
45850;BMP180;10739;52.198;20.908;2023-02-20T05:30:01;100230.00;;;4.80
45850;BMP180;10739;52.198;20.908;2023-02-20T05:32:29;100231.00;;;4.80
45850;BMP180;10739;52.198;20.908;2023-02-20T05:34:56;100234.00;;;4.80
45850;BMP180;10739;52.198;20.908;2023-02-20T05:37:25;100236.00;;;5.00
45850;BMP180;10739;52.198;20.908;2023-02-20T05:39:53;100244.00;;;4.50
45850;BMP180;10739;52.198;20.908;2023-02-20T05:42:19;100249.00;;;4.80
45850;BMP180;10739;52.198;20.908;2023-02-20T05:44:48;100227.00;;;4.50
45850;BMP180;10739;52.198;20.908;2023-02-20T05:47:15;100238.00;;;5.10
45850;BMP180;10739;52.198;20.908;2023-02-20T05:49:42;100227.00;;;5.10
45850;BMP180;10739;52.198;20.908;2023-02-20T05:52:10;100206.00;;;4.90
45850;BMP180;10739;52.198;20.908;2023-02-20T05:54:39;100214.00;;;4.90
45850;BMP180;10739;52.198;20.908;2023-02-20T05:57:06;100208.00;;;5.00
45850;BMP180;10739;52.198;20.908;2023-02-20T05:59:33;100212.00;;;5.10
45850;BMP180;10739;52.198;20.908;2023-02-20T06:01:59;100207.00;;;4.80
45850;BMP180;10739;52.198;20.908;2023-02-20T06:04:27;100195.00;;;4.90
45850;BMP180;10739;52.198;20.908;2023-02-20T06:06:53;100196.00;;;4.90
45850;BMP180;10739;52.198;20.908;2023-02-20T06:09:20;100199.00;;;5.10
45850;BMP180;10739;52.198;20.908;2023-02-20T06:11:55;100205.00;;;4.90
45850;BMP180;10739;52.198;20.908;2023-02-20T06:14:25;100210.00;;;5.20
45850;BMP180;10739;52.198;20.908;2023-02-20T06:16:51;100209.00;;;5.60
45850;BMP180;10739;52.198;20.908;2023-02-20T06:19:22;100188.00;;;5.10
45850;BMP180;10739;52.198;20.908;2023-02-20T06:21:52;100191.00;;;5.10
45850;BMP180;10739;52.198;20.908;2023-02-20T06:24:20;100191.00;;;5.30
45850;BMP180;10739;52.198;20.908;2023-02-20T06:26:47;100195.00;;;5.20
45850;BMP180;10739;52.198;20.908;2023-02-20T06:29:16;100192.00;;;5.00
45850;BMP180;10739;52.198;20.908;2023-02-20T06:31:42;100176.00;;;5.30
45850;BMP180;10739;52.198;20.908;2023-02-20T06:34:09;100190.00;;;5.30
45850;BMP180;10739;52.198;20.908;2023-02-20T06:36:38;100179.00;;;5.20
45850;BMP180;10739;52.198;20.908;2023-02-20T06:39:08;100167.00;;;5.30
45850;BMP180;10739;52.198;20.908;2023-02-20T06:41:34;100166.00;;;5.60
45850;BMP180;10739;52.198;20.908;2023-02-20T06:44:01;100165.00;;;5.30
45850;BMP180;10739;52.198;20.908;2023-02-20T06:46:27;100167.00;;;5.50
45850;BMP180;10739;52.198;20.908;2023-02-20T06:48:57;100163.00;;;5.10
45850;BMP180;10739;52.198;20.908;2023-02-20T06:51:32;100176.00;;;4.80
45850;BMP180;10739;52.198;20.908;2023-02-20T06:54:00;100165.00;;;5.40
45850;BMP180;10739;52.198;20.908;2023-02-20T06:56:30;100164.00;;;5.00
45850;BMP180;10739;52.198;20.908;2023-02-20T06:58:58;100155.00;;;5.40
45850;BMP180;10739;52.198;20.908;2023-02-20T07:01:29;100160.00;;;5.70
45850;BMP180;10739;52.198;20.908;2023-02-20T07:03:57;100148.00;;;5.60
45850;BMP180;10739;52.198;20.908;2023-02-20T07:06:25;100152.00;;;5.70
45850;BMP180;10739;52.198;20.908;2023-02-20T07:08:51;100167.00;;;5.20
45850;BMP180;10739;52.198;20.908;2023-02-20T07:11:22;100168.00;;;5.40
45850;BMP180;10739;52.198;20.908;2023-02-20T07:13:50;100156.00;;;5.80
45850;BMP180;10739;52.198;20.908;2023-02-20T07:16:17;100151.00;;;5.70
45850;BMP180;10739;52.198;20.908;2023-02-20T07:18:44;100135.00;;;5.90
45850;BMP180;10739;52.198;20.908;2023-02-20T07:21:10;100127.00;;;5.90
45850;BMP180;10739;52.198;20.908;2023-02-20T07:23:37;100130.00;;;5.90
45850;BMP180;10739;52.198;20.908;2023-02-20T07:26:04;100137.00;;;5.60
45850;BMP180;10739;52.198;20.908;2023-02-20T07:28:33;100146.00;;;6.10
45850;BMP180;10739;52.198;20.908;2023-02-20T07:31:00;100147.00;;;6.30
45850;BMP180;10739;52.198;20.908;2023-02-20T07:33:27;100129.00;;;5.90
45850;BMP180;10739;52.198;20.908;2023-02-20T07:35:53;100123.00;;;5.70
45850;BMP180;10739;52.198;20.908;2023-02-20T07:38:20;100132.00;;;5.90
45850;BMP180;10739;52.198;20.908;2023-02-20T07:40:46;100133.00;;;5.20
45850;BMP180;10739;52.198;20.908;2023-02-20T07:43:13;100132.00;;;5.40
45850;BMP180;10739;52.198;20.908;2023-02-20T07:45:39;100147.00;;;5.70
45850;BMP180;10739;52.198;20.908;2023-02-20T07:48:05;100140.00;;;6.30
45850;BMP180;10739;52.198;20.908;2023-02-20T07:50:33;100136.00;;;6.20
45850;BMP180;10739;52.198;20.908;2023-02-20T07:53:00;100128.00;;;6.30
45850;BMP180;10739;52.198;20.908;2023-02-20T07:55:26;100103.00;;;6.30
45850;BMP180;10739;52.198;20.908;2023-02-20T07:57:53;100116.00;;;6.10
45850;BMP180;10739;52.198;20.908;2023-02-20T08:00:26;100094.00;;;6.80
45850;BMP180;10739;52.198;20.908;2023-02-20T08:02:52;100087.00;;;6.60
45850;BMP180;10739;52.198;20.908;2023-02-20T08:05:19;100082.00;;;6.70
45850;BMP180;10739;52.198;20.908;2023-02-20T08:07:48;100091.00;;;6.60
45850;BMP180;10739;52.198;20.908;2023-02-20T08:10:19;100069.00;;;6.80
45850;BMP180;10739;52.198;20.908;2023-02-20T08:12:47;100058.00;;;6.70
45850;BMP180;10739;52.198;20.908;2023-02-20T08:15:17;100049.00;;;7.10
45850;BMP180;10739;52.198;20.908;2023-02-20T08:17:43;100044.00;;;6.80
45850;BMP180;10739;52.198;20.908;2023-02-20T08:20:11;100046.00;;;7.00
45850;BMP180;10739;52.198;20.908;2023-02-20T08:22:38;100043.00;;;7.40
45850;BMP180;10739;52.198;20.908;2023-02-20T08:25:05;100042.00;;;7.10
45850;BMP180;10739;52.198;20.908;2023-02-20T08:27:32;100037.00;;;7.00
45850;BMP180;10739;52.198;20.908;2023-02-20T08:30:08;100032.00;;;6.70
45850;BMP180;10739;52.198;20.908;2023-02-20T08:32:35;100030.00;;;6.80
45850;BMP180;10739;52.198;20.908;2023-02-20T08:35:01;100017.00;;;6.70
45850;BMP180;10739;52.198;20.908;2023-02-20T08:37:28;100011.00;;;6.80
45850;BMP180;10739;52.198;20.908;2023-02-20T08:39:54;100013.00;;;6.60
45850;BMP180;10739;52.198;20.908;2023-02-20T08:42:21;100009.00;;;6.50
45850;BMP180;10739;52.198;20.908;2023-02-20T08:44:47;100012.00;;;6.70
45850;BMP180;10739;52.198;20.908;2023-02-20T08:47:13;100018.00;;;6.40
45850;BMP180;10739;52.198;20.908;2023-02-20T08:49:40;100016.00;;;6.50
45850;BMP180;10739;52.198;20.908;2023-02-20T08:52:06;100008.00;;;6.30
45850;BMP180;10739;52.198;20.908;2023-02-20T08:54:33;99994.00;;;6.50
45850;BMP180;10739;52.198;20.908;2023-02-20T08:56:59;100003.00;;;5.70
45850;BMP180;10739;52.198;20.908;2023-02-20T08:59:26;99995.00;;;6.00
45850;BMP180;10739;52.198;20.908;2023-02-20T09:01:52;99992.00;;;5.90
45850;BMP180;10739;52.198;20.908;2023-02-20T09:04:18;99983.00;;;6.10
45850;BMP180;10739;52.198;20.908;2023-02-20T09:06:46;99973.00;;;5.30
45850;BMP180;10739;52.198;20.908;2023-02-20T09:09:12;99963.00;;;5.50
45850;BMP180;10739;52.198;20.908;2023-02-20T09:11:39;99959.00;;;5.40
45850;BMP180;10739;52.198;20.908;2023-02-20T09:14:05;99946.00;;;5.70
45850;BMP180;10739;52.198;20.908;2023-02-20T09:16:31;99942.00;;;5.30
45850;BMP180;10739;52.198;20.908;2023-02-20T09:18:58;99931.00;;;5.50
45850;BMP180;10739;52.198;20.908;2023-02-20T09:21:25;99928.00;;;5.80
45850;BMP180;10739;52.198;20.908;2023-02-20T09:23:54;99905.00;;;5.60
45850;BMP180;10739;52.198;20.908;2023-02-20T09:26:21;99924.00;;;5.50
45850;BMP180;10739;52.198;20.908;2023-02-20T09:28:47;99911.00;;;5.20
45850;BMP180;10739;52.198;20.908;2023-02-20T09:31:13;99905.00;;;5.40
45850;BMP180;10739;52.198;20.908;2023-02-20T09:33:46;99893.00;;;4.80
45850;BMP180;10739;52.198;20.908;2023-02-20T09:36:12;99877.00;;;5.00
45850;BMP180;10739;52.198;20.908;2023-02-20T09:38:39;99868.00;;;5.20
45850;BMP180;10739;52.198;20.908;2023-02-20T09:47:36;99832.00;;;4.80
45850;BMP180;10739;52.198;20.908;2023-02-20T09:50:14;99824.00;;;5.30
45850;BMP180;10739;52.198;20.908;2023-02-20T09:52:51;99811.00;;;5.40
45850;BMP180;10739;52.198;20.908;2023-02-20T09:55:21;99807.00;;;5.10
45850;BMP180;10739;52.198;20.908;2023-02-20T09:57:52;99799.00;;;5.00
45850;BMP180;10739;52.198;20.908;2023-02-20T10:00:40;99781.00;;;5.10
45850;BMP180;10739;52.198;20.908;2023-02-20T10:03:35;99778.00;;;5.10
45850;BMP180;10739;52.198;20.908;2023-02-20T10:06:18;99770.00;;;4.60
45850;BMP180;10739;52.198;20.908;2023-02-20T10:08:50;99767.00;;;5.10
45850;BMP180;10739;52.198;20.908;2023-02-20T10:17:25;99736.00;;;5.40
45850;BMP180;10739;52.198;20.908;2023-02-20T10:25:46;99725.00;;;5.00
45850;BMP180;10739;52.198;20.908;2023-02-20T10:28:18;99723.00;;;5.10
45850;BMP180;10739;52.198;20.908;2023-02-20T10:30:57;99732.00;;;5.20
45850;BMP180;10739;52.198;20.908;2023-02-20T10:33:58;99707.00;;;4.80
45850;BMP180;10739;52.198;20.908;2023-02-20T10:36:41;99710.00;;;4.60
45850;BMP180;10739;52.198;20.908;2023-02-20T10:39:16;99688.00;;;4.90
45850;BMP180;10739;52.198;20.908;2023-02-20T10:42:00;99697.00;;;4.70
45850;BMP180;10739;52.198;20.908;2023-02-20T10:44:59;99679.00;;;4.70
45850;BMP180;10739;52.198;20.908;2023-02-20T10:53:02;99663.00;;;4.80
45850;BMP180;10739;52.198;20.908;2023-02-20T10:55:51;99662.00;;;4.70
45850;BMP180;10739;52.198;20.908;2023-02-20T11:01:25;99646.00;;;5.40
45850;BMP180;10739;52.198;20.908;2023-02-20T11:06:47;99630.00;;;4.60
45850;BMP180;10739;52.198;20.908;2023-02-20T11:09:15;99619.00;;;5.00
45850;BMP180;10739;52.198;20.908;2023-02-20T11:11:44;99608.00;;;4.80
45850;BMP180;10739;52.198;20.908;2023-02-20T11:14:21;99613.00;;;5.00
45850;BMP180;10739;52.198;20.908;2023-02-20T11:16:59;99607.00;;;5.00
45850;BMP180;10739;52.198;20.908;2023-02-20T11:19:49;99593.00;;;5.20
45850;BMP180;10739;52.198;20.908;2023-02-20T11:22:18;99556.00;;;5.30
45850;BMP180;10739;52.198;20.908;2023-02-20T11:25:18;99486.00;;;4.70
45850;BMP180;10739;52.198;20.908;2023-02-20T11:27:49;99463.00;;;4.60
45850;BMP180;10739;52.198;20.908;2023-02-20T11:30:33;99491.00;;;4.80
45850;BMP180;10739;52.198;20.908;2023-02-20T11:35:32;99466.00;;;4.60
45850;BMP180;10739;52.198;20.908;2023-02-20T11:43:42;99455.00;;;5.20
45850;BMP180;10739;52.198;20.908;2023-02-20T11:46:18;99420.00;;;4.90
45850;BMP180;10739;52.198;20.908;2023-02-20T11:51:47;99406.00;;;5.30
45850;BMP180;10739;52.198;20.908;2023-02-20T11:54:22;99386.00;;;5.20
45850;BMP180;10739;52.198;20.908;2023-02-20T12:10:43;99325.00;;;5.80
45850;BMP180;10739;52.198;20.908;2023-02-20T12:13:16;99307.00;;;5.70
45850;BMP180;10739;52.198;20.908;2023-02-20T12:15:51;99282.00;;;5.80
45850;BMP180;10739;52.198;20.908;2023-02-20T12:18:44;99263.00;;;6.20
45850;BMP180;10739;52.198;20.908;2023-02-20T12:33:20;99265.00;;;6.40
45850;BMP180;10739;52.198;20.908;2023-02-20T12:56:36;99251.00;;;7.50
45850;BMP180;10739;52.198;20.908;2023-02-20T13:02:26;99261.00;;;7.60
45850;BMP180;10739;52.198;20.908;2023-02-20T13:04:58;99248.00;;;7.20
45850;BMP180;10739;52.198;20.908;2023-02-20T13:07:38;99243.00;;;7.60
45850;BMP180;10739;52.198;20.908;2023-02-20T13:10:16;99250.00;;;7.40
45850;BMP180;10739;52.198;20.908;2023-02-20T13:12:43;99248.00;;;8.00
45850;BMP180;10739;52.198;20.908;2023-02-20T13:15:41;99244.00;;;7.80
45850;BMP180;10739;52.198;20.908;2023-02-20T13:21:17;99245.00;;;7.90
45850;BMP180;10739;52.198;20.908;2023-02-20T13:23:45;99220.00;;;8.50
45850;BMP180;10739;52.198;20.908;2023-02-20T13:29:27;99218.00;;;8.10
45850;BMP180;10739;52.198;20.908;2023-02-20T13:31:57;99227.00;;;8.50
45850;BMP180;10739;52.198;20.908;2023-02-20T13:34:37;99219.00;;;8.70
45850;BMP180;10739;52.198;20.908;2023-02-20T13:45:43;99185.00;;;8.80
45850;BMP180;10739;52.198;20.908;2023-02-20T13:48:42;99147.00;;;8.50
45850;BMP180;10739;52.198;20.908;2023-02-20T13:53:56;99167.00;;;9.00
45850;BMP180;10739;52.198;20.908;2023-02-20T13:59:16;99140.00;;;9.30
45850;BMP180;10739;52.198;20.908;2023-02-20T14:02:02;99151.00;;;9.00
45850;BMP180;10739;52.198;20.908;2023-02-20T14:04:31;99130.00;;;8.70
45850;BMP180;10739;52.198;20.908;2023-02-20T14:06:57;99162.00;;;9.10
45850;BMP180;10739;52.198;20.908;2023-02-20T14:09:27;99161.00;;;9.00
45850;BMP180;10739;52.198;20.908;2023-02-20T14:12:23;99138.00;;;9.20
45850;BMP180;10739;52.198;20.908;2023-02-20T14:14:50;99133.00;;;9.60
45850;BMP180;10739;52.198;20.908;2023-02-20T14:17:22;99126.00;;;9.40
45850;BMP180;10739;52.198;20.908;2023-02-20T14:19:55;99110.00;;;9.20
45850;BMP180;10739;52.198;20.908;2023-02-20T14:22:33;99124.00;;;9.30
45850;BMP180;10739;52.198;20.908;2023-02-20T14:25:23;99121.00;;;9.10
45850;BMP180;10739;52.198;20.908;2023-02-20T14:27:50;99102.00;;;9.40
45850;BMP180;10739;52.198;20.908;2023-02-20T14:30:22;99104.00;;;9.60
45850;BMP180;10739;52.198;20.908;2023-02-20T14:32:55;99110.00;;;9.40
45850;BMP180;10739;52.198;20.908;2023-02-20T14:35:53;99106.00;;;9.60
45850;BMP180;10739;52.198;20.908;2023-02-20T14:40:58;99109.00;;;9.50
45850;BMP180;10739;52.198;20.908;2023-02-20T14:43:27;99076.00;;;9.40
45850;BMP180;10739;52.198;20.908;2023-02-20T14:46:19;99062.00;;;9.50
45850;BMP180;10739;52.198;20.908;2023-02-20T14:48:46;99087.00;;;9.50
45850;BMP180;10739;52.198;20.908;2023-02-20T14:51:23;99072.00;;;9.80
45850;BMP180;10739;52.198;20.908;2023-02-20T14:54:23;99076.00;;;9.60
45850;BMP180;10739;52.198;20.908;2023-02-20T14:56:49;99081.00;;;9.90
45850;BMP180;10739;52.198;20.908;2023-02-20T14:59:31;99069.00;;;9.80
45850;BMP180;10739;52.198;20.908;2023-02-20T15:02:21;99047.00;;;9.70
45850;BMP180;10739;52.198;20.908;2023-02-20T15:04:59;99048.00;;;9.90
45850;BMP180;10739;52.198;20.908;2023-02-20T15:07:26;99087.00;;;10.10
45850;BMP180;10739;52.198;20.908;2023-02-20T15:09:57;99071.00;;;9.80
45850;BMP180;10739;52.198;20.908;2023-02-20T15:12:37;99074.00;;;10.40
45850;BMP180;10739;52.198;20.908;2023-02-20T15:15:10;99050.00;;;9.80
45850;BMP180;10739;52.198;20.908;2023-02-20T15:17:40;99036.00;;;9.80
45850;BMP180;10739;52.198;20.908;2023-02-20T15:20:40;99027.00;;;10.20
45850;BMP180;10739;52.198;20.908;2023-02-20T15:23:45;99049.00;;;9.60
45850;BMP180;10739;52.198;20.908;2023-02-20T15:26:28;99061.00;;;10.00
45850;BMP180;10739;52.198;20.908;2023-02-20T15:29:27;99054.00;;;10.00
45850;BMP180;10739;52.198;20.908;2023-02-20T15:34:35;99033.00;;;10.10
45850;BMP180;10739;52.198;20.908;2023-02-20T15:37:24;99031.00;;;10.20
45850;BMP180;10739;52.198;20.908;2023-02-20T15:39:52;99030.00;;;10.00
45850;BMP180;10739;52.198;20.908;2023-02-20T15:42:22;99032.00;;;10.20
45850;BMP180;10739;52.198;20.908;2023-02-20T15:44:49;99035.00;;;10.00
45850;BMP180;10739;52.198;20.908;2023-02-20T15:47:16;99039.00;;;10.30
45850;BMP180;10739;52.198;20.908;2023-02-20T15:49:43;99030.00;;;9.80
45850;BMP180;10739;52.198;20.908;2023-02-20T15:52:26;99029.00;;;10.10
45850;BMP180;10739;52.198;20.908;2023-02-20T15:54:55;99036.00;;;10.30
45850;BMP180;10739;52.198;20.908;2023-02-20T15:57:22;99024.00;;;10.20
45850;BMP180;10739;52.198;20.908;2023-02-20T15:59:49;99017.00;;;10.00
45850;BMP180;10739;52.198;20.908;2023-02-20T16:02:19;99023.00;;;10.70
45850;BMP180;10739;52.198;20.908;2023-02-20T16:04:48;99011.00;;;10.30
45850;BMP180;10739;52.198;20.908;2023-02-20T16:07:17;99015.00;;;10.40
45850;BMP180;10739;52.198;20.908;2023-02-20T16:09:45;99006.00;;;10.10
45850;BMP180;10739;52.198;20.908;2023-02-20T16:12:20;98999.00;;;10.20
45850;BMP180;10739;52.198;20.908;2023-02-20T16:14:48;98987.00;;;10.30
45850;BMP180;10739;52.198;20.908;2023-02-20T16:17:26;99002.00;;;10.30
45850;BMP180;10739;52.198;20.908;2023-02-20T16:19:54;98998.00;;;10.50
45850;BMP180;10739;52.198;20.908;2023-02-20T16:22:21;99003.00;;;10.50
45850;BMP180;10739;52.198;20.908;2023-02-20T16:24:47;99003.00;;;10.60
45850;BMP180;10739;52.198;20.908;2023-02-20T16:27:19;98994.00;;;10.00
45850;BMP180;10739;52.198;20.908;2023-02-20T16:29:47;98998.00;;;10.10
45850;BMP180;10739;52.198;20.908;2023-02-20T16:32:17;98979.00;;;10.00
45850;BMP180;10739;52.198;20.908;2023-02-20T16:34:44;98988.00;;;10.60
45850;BMP180;10739;52.198;20.908;2023-02-20T16:37:12;98978.00;;;10.50
45850;BMP180;10739;52.198;20.908;2023-02-20T16:39:39;98981.00;;;10.80
45850;BMP180;10739;52.198;20.908;2023-02-20T16:42:35;98986.00;;;10.80
45850;BMP180;10739;52.198;20.908;2023-02-20T16:47:37;98998.00;;;10.70
45850;BMP180;10739;52.198;20.908;2023-02-20T16:50:05;98977.00;;;10.20
45850;BMP180;10739;52.198;20.908;2023-02-20T16:52:38;98972.00;;;10.20
45850;BMP180;10739;52.198;20.908;2023-02-20T16:55:24;98974.00;;;10.10
45850;BMP180;10739;52.198;20.908;2023-02-20T16:57:53;98978.00;;;10.50